Time;durP1;ratioP1;P1;durP2;ratioP2;P2;SDS_P1;SDS_P2;PMS_P1;PMS_P2;Temp;Humidity;BMP_temperature;BMP_pressure;BME280_temperature;BME280_humidity;BME280_pressure;Samples;Min_cycle;Max_cycle;Signal;HPM_P1;HPM_P2
2021/01/26 00:01:00;;;;;;;1.38;1.25;;;1.40;95.50;;;;;;4974996;28;20188;-68
2021/01/26 00:03:26;;;;;;;2.07;1.97;;;1.30;95.40;;;;;;4975973;28;20276;-68
2021/01/26 00:05:52;;;;;;;5.00;2.80;;;1.10;95.30;;;;;;4975344;28;20976;-68
2021/01/26 00:08:18;;;;;;;2.00;1.90;;;1.00;95.40;;;;;;4975854;28;20780;-68
2021/01/26 00:10:44;;;;;;;1.85;1.70;;;0.90;95.90;;;;;;4975832;28;20223;-68
2021/01/26 00:13:10;;;;;;;2.20;2.00;;;0.80;96.30;;;;;;4974563;28;20193;-67
2021/01/26 00:15:36;;;;;;;2.57;2.37;;;0.90;96.60;;;;;;4975676;28;20248;-68
2021/01/26 00:18:03;;;;;;;2.03;1.92;;;1.00;95.30;;;;;;4975948;28;20169;-68
2021/01/26 00:20:29;;;;;;;2.25;2.10;;;1.10;95.00;;;;;;4975610;28;20177;-68
2021/01/26 00:22:55;;;;;;;2.83;2.63;;;1.20;94.50;;;;;;4975702;28;20219;-68
2021/01/26 00:25:25;;;;;;;1.97;1.87;;;1.10;94.60;;;;;;4975703;28;20176;-67
2021/01/26 00:27:51;;;;;;;2.08;1.98;;;1.00;94.10;;;;;;4975857;28;20407;-68
2021/01/26 00:30:23;;;;;;;2.55;2.35;;;0.90;93.80;;;;;;4975574;28;20200;-68
2021/01/26 00:32:49;;;;;;;3.70;1.95;;;0.90;93.90;;;;;;4975495;28;20185;-68
2021/01/26 00:35:17;;;;;;;1.87;1.77;;;0.90;93.80;;;;;;4975273;28;20531;-68
2021/01/26 00:37:43;;;;;;;1.83;1.55;;;0.90;93.70;;;;;;4975611;28;20176;-68
2021/01/26 00:40:09;;;;;;;3.00;2.00;;;0.90;94.00;;;;;;4975510;28;20297;-68
2021/01/26 00:42:35;;;;;;;3.38;2.17;;;0.80;93.70;;;;;;4975187;28;20201;-68
2021/01/26 00:45:03;;;;;;;2.60;2.10;;;0.90;94.00;;;;;;4975252;28;20180;-68
2021/01/26 00:47:28;;;;;;;3.35;1.98;;;1.10;94.10;;;;;;4975360;28;20503;-68
2021/01/26 00:49:54;;;;;;;2.50;2.30;;;1.00;93.60;;;;;;4975163;28;20292;-67
2021/01/26 00:52:20;;;;;;;1.90;1.77;;;0.80;93.40;;;;;;4975264;28;20199;-67
2021/01/26 00:54:45;;;;;;;9.10;3.07;;;0.60;93.10;;;;;;4975008;28;20177;-68
2021/01/26 00:57:11;;;;;;;3.30;2.10;;;0.50;93.20;;;;;;4975097;28;20404;-68
2021/01/26 00:59:38;;;;;;;3.80;1.87;;;0.50;93.40;;;;;;4975131;28;20170;-68
2021/01/26 01:02:03;;;;;;;3.08;2.78;;;0.50;93.90;;;;;;4975053;28;20200;-67
2021/01/26 01:04:29;;;;;;;4.23;2.20;;;0.60;93.90;;;;;;4975187;28;20538;-67
2021/01/26 01:06:54;;;;;;;3.97;1.93;;;0.50;93.50;;;;;;4974838;28;20172;-68
2021/01/26 01:09:20;;;;;;;1.83;1.57;;;0.50;93.60;;;;;;4974833;28;20181;-68
2021/01/26 01:11:46;;;;;;;1.60;1.50;;;0.50;93.50;;;;;;4975012;28;20639;-68
2021/01/26 01:14:12;;;;;;;2.60;2.38;;;0.40;93.70;;;;;;4974892;28;20631;-68
2021/01/26 01:16:38;;;;;;;2.87;2.67;;;0.40;93.90;;;;;;4974071;28;20184;-68
2021/01/26 01:19:04;;;;;;;1.95;1.75;;;0.20;94.30;;;;;;4974871;28;20189;-68
2021/01/26 01:21:29;;;;;;;2.40;1.73;;;0.20;94.70;;;;;;4974983;28;20187;-68
2021/01/26 01:23:55;;;;;;;2.73;2.33;;;0.30;94.80;;;;;;4974710;28;20268;-67
2021/01/26 01:26:20;;;;;;;1.87;1.73;;;0.30;94.90;;;;;;4974654;28;20169;-68
2021/01/26 01:28:46;;;;;;;2.77;1.90;;;0.40;95.00;;;;;;4974945;28;20173;-68
2021/01/26 01:31:11;;;;;;;3.00;2.60;;;0.50;94.70;;;;;;4974516;28;20242;-68
2021/01/26 01:33:37;;;;;;;3.67;2.67;;;0.60;94.60;;;;;;4974583;28;20667;-68
2021/01/26 01:36:03;;;;;;;2.00;1.90;;;0.50;94.60;;;;;;4974627;28;20651;-68
2021/01/26 01:38:29;;;;;;;3.25;1.83;;;0.50;94.50;;;;;;4974595;28;20180;-68
2021/01/26 01:40:54;;;;;;;3.47;2.97;;;0.50;94.10;;;;;;4974689;28;20566;-68
2021/01/26 01:43:20;;;;;;;2.23;2.13;;;0.40;94.00;;;;;;4974500;28;20188;-67
2021/01/26 01:45:47;;;;;;;3.30;2.30;;;0.20;94.10;;;;;;4974459;28;20647;-69
2021/01/26 01:48:17;;;;;;;3.45;2.35;;;-0.10;94.40;;;;;;4974653;28;20799;-68
2021/01/26 01:50:49;;;;;;;3.05;2.25;;;-0.30;94.60;;;;;;4974424;28;20630;-68
2021/01/26 01:53:24;;;;;;;2.30;2.03;;;-0.30;95.00;;;;;;4974470;28;20275;-68
2021/01/26 01:56:02;;;;;;;2.65;1.88;;;-0.50;94.80;;;;;;4974255;28;20177;-68
2021/01/26 01:58:32;;;;;;;2.05;1.95;;;-0.60;95.00;;;;;;4974434;28;20196;-68
2021/01/26 02:01:07;;;;;;;2.20;2.00;;;-0.70;94.70;;;;;;4974390;28;20225;-68
2021/01/26 02:03:36;;;;;;;2.85;2.33;;;-0.80;94.50;;;;;;4974300;28;20225;-68
2021/01/26 02:06:02;;;;;;;2.97;2.00;;;-1.00;95.10;;;;;;4974164;28;20562;-67
2021/01/26 02:08:40;;;;;;;2.53;2.33;;;-1.10;95.20;;;;;;4974432;28;20177;-67
2021/01/26 02:11:06;;;;;;;5.85;2.70;;;-1.30;95.40;;;;;;4974022;28;20267;-68
2021/01/26 02:13:32;;;;;;;2.42;2.22;;;-1.40;95.90;;;;;;4974191;28;20205;-68
2021/01/26 02:16:02;;;;;;;1.77;1.70;;;-1.40;96.20;;;;;;4974147;28;20227;-68
2021/01/26 02:18:42;;;;;;;3.10;2.22;;;-1.40;96.30;;;;;;4974482;28;20743;-68
2021/01/26 02:21:42;;;;;;;2.78;2.30;;;-1.40;96.50;;;;;;4974383;28;20177;-68
2021/01/26 02:24:36;;;;;;;3.38;2.33;;;-1.40;96.50;;;;;;4955363;28;20189;-68
2021/01/26 02:27:41;;;;;;;2.75;2.55;;;-1.30;96.80;;;;;;4955009;28;20196;-68
2021/01/26 02:30:36;;;;;;;2.97;1.88;;;-1.10;96.90;;;;;;4977754;28;20197;-68
2021/01/26 02:33:39;;;;;;;2.95;2.45;;;-0.80;96.80;;;;;;4977913;28;20667;-67
2021/01/26 02:36:26;;;;;;;3.72;2.65;;;-0.60;96.20;;;;;;4977423;28;20181;-68
2021/01/26 02:39:12;;;;;;;3.92;2.67;;;-0.50;96.20;;;;;;4977722;28;20169;-68
2021/01/26 02:41:47;;;;;;;2.90;2.60;;;-0.40;96.20;;;;;;4977682;28;20177;-68
2021/01/26 02:44:46;;;;;;;4.43;3.05;;;-0.20;96.00;;;;;;4977660;28;20248;-67
2021/01/26 02:47:26;;;;;;;2.85;2.00;;;-0.10;95.80;;;;;;4977556;28;20169;-67
2021/01/26 02:49:57;;;;;;;2.55;2.33;;;0.20;95.40;;;;;;4977498;28;20200;-68
2021/01/26 02:52:23;;;;;;;4.10;3.20;;;0.20;95.00;;;;;;4977452;28;20189;-68
2021/01/26 02:55:06;;;;;;;2.87;2.60;;;0.30;95.30;;;;;;4977117;28;20215;-68
2021/01/26 02:57:45;;;;;;;7.15;3.55;;;0.40;95.30;;;;;;4977525;28;20169;-68
2021/01/26 03:00:22;;;;;;;3.20;2.90;;;0.10;95.20;;;;;;4977370;28;20195;-68
2021/01/26 03:03:00;;;;;;;4.18;3.15;;;0.30;95.50;;;;;;4977423;28;20646;-68
2021/01/26 03:05:34;;;;;;;3.00;2.80;;;0.30;95.20;;;;;;4977053;28;20524;-68
2021/01/26 03:08:05;;;;;;;2.95;2.75;;;0.40;95.20;;;;;;4977061;28;20545;-68
2021/01/26 03:10:43;;;;;;;4.85;3.05;;;0.60;95.00;;;;;;4976328;28;20562;-68
2021/01/26 03:13:11;;;;;;;2.45;2.10;;;0.50;94.90;;;;;;4975792;28;20247;-68
2021/01/26 03:15:42;;;;;;;2.63;2.40;;;0.60;95.00;;;;;;4976386;28;20255;-68
2021/01/26 03:18:13;;;;;;;3.95;2.50;;;0.60;95.20;;;;;;4976656;28;20201;-67
2021/01/26 03:20:44;;;;;;;2.63;2.53;;;0.80;94.90;;;;;;4977102;28;20207;-68
2021/01/26 03:23:16;;;;;;;4.15;3.28;;;0.80;94.60;;;;;;4976843;28;20251;-67
2021/01/26 03:25:48;;;;;;;3.20;2.55;;;0.80;94.60;;;;;;4976747;28;20172;-68
2021/01/26 03:28:16;;;;;;;5.80;2.40;;;0.70;94.40;;;;;;4976476;28;20193;-70
2021/01/26 03:30:45;;;;;;;4.53;3.00;;;0.50;94.60;;;;;;4976959;28;20552;-69
2021/01/26 03:33:17;;;;;;;3.20;2.40;;;0.60;95.00;;;;;;4975553;28;20204;-71
2021/01/26 03:35:43;;;;;;;2.80;2.60;;;0.60;94.60;;;;;;4974538;28;20184;-68
2021/01/26 03:38:30;;;;;;;2.63;2.42;;;0.60;93.90;;;;;;4974601;28;20889;-68
2021/01/26 03:40:57;;;;;;;2.78;2.58;;;0.40;94.30;;;;;;4973925;28;20176;-69
2021/01/26 03:43:23;;;;;;;3.35;1.90;;;0.30;94.60;;;;;;4975205;28;20591;-71
2021/01/26 03:46:21;;;;;;;3.83;2.67;;;0.20;94.60;;;;;;4975154;28;20177;-68
2021/01/26 03:49:08;;;;;;;3.70;2.33;;;0.00;94.80;;;;;;4959019;28;20197;-71
2021/01/26 03:51:48;;;;;;;2.53;2.30;;;0.10;94.60;;;;;;4976096;28;20197;-70
2021/01/26 03:54:26;;;;;;;3.63;3.30;;;0.20;94.20;;;;;;4976352;28;20149;-71
2021/01/26 03:57:06;;;;;;;5.70;2.83;;;0.30;94.40;;;;;;4976617;28;20176;-70
2021/01/26 04:00:01;;;;;;;4.45;3.28;;;0.40;94.10;;;;;;4976900;28;20546;-70
2021/01/26 04:02:41;;;;;;;2.35;1.90;;;0.30;93.70;;;;;;4976041;28;20211;-67
2021/01/26 04:05:50;;;;;;;4.68;2.92;;;0.40;93.80;;;;;;4976272;28;20519;-69
2021/01/26 04:08:19;;;;;;;5.25;2.67;;;0.40;94.10;;;;;;4954000;28;20251;-70
2021/01/26 04:11:05;;;;;;;2.83;2.63;;;0.40;93.80;;;;;;4975810;28;20236;-71
2021/01/26 04:13:39;;;;;;;2.97;2.70;;;0.40;93.60;;;;;;4976186;28;20189;-71
2021/01/26 04:16:06;;;;;;;4.32;3.00;;;0.40;93.70;;;;;;4976015;28;20198;-71
2021/01/26 04:18:39;;;;;;;8.45;3.08;;;0.40;94.10;;;;;;4975937;28;20572;-71
2021/01/26 04:21:08;;;;;;;3.45;3.15;;;0.50;94.10;;;;;;4974657;28;20669;-71
2021/01/26 04:23:33;;;;;;;4.88;2.50;;;0.70;93.70;;;;;;4975552;28;20201;-71
2021/01/26 04:26:05;;;;;;;4.33;3.07;;;0.80;93.50;;;;;;4974170;28;20183;-71
2021/01/26 04:28:38;;;;;;;4.18;3.78;;;0.80;93.40;;;;;;4975824;28;20802;-71
2021/01/26 04:31:06;;;;;;;5.43;3.58;;;0.80;93.30;;;;;;4975801;28;20205;-71
2021/01/26 04:33:32;;;;;;;5.85;3.15;;;0.90;93.30;;;;;;4975720;28;20188;-70
2021/01/26 04:35:58;;;;;;;4.35;2.67;;;0.90;93.30;;;;;;4975677;28;20543;-70
2021/01/26 04:38:24;;;;;;;3.43;3.13;;;0.80;93.20;;;;;;4975390;28;20165;-70
2021/01/26 04:40:53;;;;;;;3.60;3.30;;;0.70;93.30;;;;;;4975651;28;20184;-69
2021/01/26 04:43:43;;;;;;;7.38;4.72;;;0.40;93.60;;;;;;4974072;28;20250;-71
2021/01/26 04:46:30;;;;;;;3.97;3.05;;;0.30;94.20;;;;;;4975174;28;20204;-70
2021/01/26 04:49:18;;;;;;;4.07;2.90;;;0.60;94.40;;;;;;4975312;28;20173;-71
2021/01/26 04:52:10;;;;;;;5.05;3.78;;;0.70;94.30;;;;;;4974919;28;20193;-71
2021/01/26 04:55:00;;;;;;;3.17;2.78;;;0.80;93.80;;;;;;4975259;28;20535;-70
2021/01/26 04:57:46;;;;;;;4.13;3.45;;;0.60;93.80;;;;;;4975118;28;20165;-71
2021/01/26 05:00:32;;;;;;;6.38;4.30;;;0.70;94.10;;;;;;4974686;28;20212;-70
2021/01/26 05:03:10;;;;;;;3.35;3.03;;;0.70;93.80;;;;;;4974965;28;20228;-69
2021/01/26 05:05:41;;;;;;;3.72;3.08;;;0.80;93.90;;;;;;4974977;28;20172;-70
2021/01/26 05:08:12;;;;;;;5.00;4.47;;;0.80;93.50;;;;;;4975197;28;20181;-70
2021/01/26 05:10:43;;;;;;;5.07;3.47;;;0.80;93.30;;;;;;4974807;28;20544;-70
2021/01/26 05:13:22;;;;;;;5.03;3.40;;;0.90;93.20;;;;;;4973588;28;20216;-70
2021/01/26 05:16:03;;;;;;;3.70;2.80;;;0.90;93.30;;;;;;4974673;28;20177;-71
2021/01/26 05:18:42;;;;;;;3.13;2.85;;;0.90;93.20;;;;;;4974785;28;20177;-69
2021/01/26 05:21:18;;;;;;;5.70;3.47;;;0.90;93.20;;;;;;4974844;28;20316;-70
2021/01/26 05:23:50;;;;;;;3.97;3.22;;;0.50;93.10;;;;;;4974911;28;20192;-70
2021/01/26 05:26:15;;;;;;;3.55;3.22;;;0.20;93.30;;;;;;4974627;28;20533;-69
2021/01/26 05:28:45;;;;;;;5.43;3.17;;;0.00;93.50;;;;;;4975000;28;20192;-71
2021/01/26 05:31:25;;;;;;;1.85;1.73;;;0.10;93.90;;;;;;4974681;28;20940;-70
2021/01/26 05:33:51;;;;;;;11.43;3.72;;;0.10;94.10;;;;;;4974545;28;20185;-71
2021/01/26 05:36:17;;;;;;;5.80;3.40;;;0.10;94.00;;;;;;4974530;28;20639;-69
2021/01/26 05:38:43;;;;;;;4.63;3.33;;;0.00;93.90;;;;;;4974621;28;20427;-70
2021/01/26 05:41:10;;;;;;;5.50;4.17;;;0.00;94.10;;;;;;4974710;28;20205;-71
2021/01/26 05:43:36;;;;;;;6.75;4.60;;;0.00;94.60;;;;;;4973440;28;20193;-71
2021/01/26 05:46:07;;;;;;;4.72;3.47;;;0.00;94.40;;;;;;4974365;28;20235;-70
2021/01/26 05:48:49;;;;;;;3.45;3.15;;;0.20;94.00;;;;;;4974814;28;20181;-70
2021/01/26 05:51:21;;;;;;;5.20;3.17;;;0.30;93.80;;;;;;4974661;28;20734;-70
2021/01/26 05:54:00;;;;;;;3.33;2.08;;;0.30;93.70;;;;;;4974423;28;20247;-71
2021/01/26 05:56:28;;;;;;;4.82;3.30;;;0.20;93.80;;;;;;4974336;28;20181;-71
2021/01/26 05:58:54;;;;;;;5.22;3.78;;;0.30;93.90;;;;;;4974405;28;20519;-71
2021/01/26 06:01:24;;;;;;;2.97;2.35;;;0.10;94.00;;;;;;4974522;28;20177;-71
2021/01/26 06:04:29;;;;;;;3.25;2.38;;;0.10;94.10;;;;;;4976238;28;20193;-69
2021/01/26 06:06:59;;;;;;;5.95;3.47;;;0.10;94.10;;;;;;4937596;29;20182;-70
2021/01/26 06:09:37;;;;;;;5.13;3.45;;;0.00;94.40;;;;;;4971856;28;20204;-70
2021/01/26 06:12:24;;;;;;;3.80;2.30;;;0.00;94.50;;;;;;4978003;28;20626;-70
2021/01/26 06:14:57;;;;;;;3.13;2.40;;;0.10;94.50;;;;;;4977797;28;20173;-71
2021/01/26 06:17:26;;;;;;;2.50;2.30;;;0.20;94.60;;;;;;4978067;28;20167;-71
2021/01/26 06:20:13;;;;;;;2.40;2.10;;;0.30;94.40;;;;;;4977985;28;20594;-71
2021/01/26 06:22:39;;;;;;;3.05;2.72;;;0.40;94.40;;;;;;4977911;28;20659;-70
2021/01/26 06:25:21;;;;;;;4.87;3.60;;;0.50;94.30;;;;;;4978006;28;20181;-70
2021/01/26 06:28:30;;;;;;;2.95;2.17;;;0.50;94.20;;;;;;4976667;28;20546;-70
2021/01/26 06:31:23;;;;;;;3.95;2.90;;;0.40;94.30;;;;;;4977984;28;20196;-70
2021/01/26 06:40:47;;;;;;;3.92;2.47;;;0.40;94.70;;;;;;4978186;28;20204;-70
2021/01/26 06:43:27;;;;;;;6.15;4.35;;;0.40;95.20;;;;;;4977493;28;20188;-70
2021/01/26 06:46:11;;;;;;;3.95;2.70;;;0.30;95.10;;;;;;4977492;28;20165;-70
2021/01/26 06:49:32;;;;;;;5.00;3.22;;;0.10;96.00;;;;;;4977440;28;20173;-70
2021/01/26 06:52:28;;;;;;;4.05;3.08;;;0.20;96.10;;;;;;4944854;28;20252;-70
2021/01/26 06:55:30;;;;;;;4.97;2.47;;;0.20;96.10;;;;;;4976020;28;20530;-71
2021/01/26 06:58:08;;;;;;;4.18;2.45;;;0.10;96.00;;;;;;4977373;28;20201;-71
2021/01/26 07:01:03;;;;;;;2.70;2.30;;;0.10;96.30;;;;;;4977297;28;20180;-71
2021/01/26 07:04:07;;;;;;;3.50;2.22;;;0.00;96.20;;;;;;4976733;28;20204;-70
2021/01/26 07:07:00;;;;;;;7.68;4.20;;;0.00;96.30;;;;;;4977091;28;20263;-70
2021/01/26 07:09:47;;;;;;;2.67;2.20;;;0.20;96.50;;;;;;4976986;28;20185;-70
2021/01/26 07:12:22;;;;;;;9.93;4.15;;;0.50;96.10;;;;;;4977302;28;20334;-71
2021/01/26 07:15:09;;;;;;;5.45;3.25;;;0.50;95.80;;;;;;4975639;28;20159;-70
2021/01/26 07:24:56;;;;;;;5.18;3.70;;;0.70;95.30;;;;;;4977479;28;20172;-70
2021/01/26 07:27:52;;;;;;;4.20;2.70;;;0.80;95.30;;;;;;4975750;28;20643;-70
2021/01/26 07:30:21;;;;;;;6.75;3.13;;;0.80;95.30;;;;;;4976589;28;20208;-71
2021/01/26 07:33:10;;;;;;;4.45;3.47;;;1.00;95.30;;;;;;4976874;28;20196;-70
2021/01/26 07:35:41;;;;;;;5.07;3.35;;;1.00;95.00;;;;;;4976685;28;20582;-70
2021/01/26 07:38:19;;;;;;;5.55;2.25;;;0.90;94.90;;;;;;4976311;28;20177;-69
2021/01/26 07:40:58;;;;;;;3.00;2.65;;;0.80;95.20;;;;;;4976519;28;20172;-70
2021/01/26 07:43:53;;;;;;;2.92;2.55;;;0.80;95.50;;;;;;4976459;28;20647;-70
2021/01/26 07:46:31;;;;;;;3.75;3.45;;;0.80;95.30;;;;;;4976370;28;20206;-70
2021/01/26 07:49:22;;;;;;;4.40;2.95;;;0.70;95.70;;;;;;4976586;28;20191;-71
2021/01/26 07:51:54;;;;;;;7.05;3.80;;;0.70;95.70;;;;;;4976464;28;20200;-70
2021/01/26 07:54:50;;;;;;;3.92;3.60;;;0.70;95.80;;;;;;4976423;28;20168;-70
2021/01/26 07:57:19;;;;;;;6.30;4.38;;;0.60;96.00;;;;;;4959766;28;20243;-69
2021/01/26 07:59:53;;;;;;;4.40;3.65;;;0.10;96.60;;;;;;4976442;28;20161;-69
2021/01/26 08:02:24;;;;;;;4.75;4.10;;;0.00;97.50;;;;;;4976344;28;20560;-69
2021/01/26 08:04:50;;;;;;;4.32;4.00;;;0.00;97.80;;;;;;4974713;28;20166;-70
2021/01/26 08:07:28;;;;;;;3.77;3.17;;;0.30;97.80;;;;;;4976161;28;20177;-70
2021/01/26 08:09:54;;;;;;;5.55;3.33;;;0.60;97.10;;;;;;4975883;28;20259;-70
2021/01/26 08:12:27;;;;;;;7.20;3.95;;;0.70;96.80;;;;;;4975962;28;20232;-69
2021/01/26 08:14:56;;;;;;;3.75;3.05;;;0.50;96.50;;;;;;4975919;28;20149;-70
2021/01/26 08:17:32;;;;;;;4.70;3.72;;;0.50;96.90;;;;;;4975954;28;20185;-70
2021/01/26 08:20:04;;;;;;;5.68;3.80;;;0.40;97.20;;;;;;4976289;28;20187;-70
2021/01/26 08:22:38;;;;;;;5.20;4.10;;;0.50;97.00;;;;;;4975890;28;20549;-70
2021/01/26 08:25:12;;;;;;;3.08;2.88;;;0.70;96.60;;;;;;4974374;28;20176;-70
2021/01/26 08:27:38;;;;;;;6.50;3.97;;;1.00;96.10;;;;;;4975453;28;20180;-70
2021/01/26 08:30:12;;;;;;;6.47;4.87;;;0.90;96.00;;;;;;4975770;28;20193;-70
2021/01/26 08:32:37;;;;;;;5.95;3.72;;;1.00;95.80;;;;;;4975646;28;20260;-70
2021/01/26 08:35:13;;;;;;;3.33;2.67;;;1.10;95.50;;;;;;4975820;28;20165;-70
2021/01/26 08:37:42;;;;;;;5.32;3.40;;;0.80;96.00;;;;;;4974305;28;20176;-69
2021/01/26 08:40:28;;;;;;;3.65;3.05;;;0.90;95.90;;;;;;4975540;28;20184;-70
2021/01/26 08:43:07;;;;;;;2.78;2.45;;;0.90;95.70;;;;;;4954340;28;20197;-70
2021/01/26 08:45:33;;;;;;;6.65;3.80;;;1.00;95.70;;;;;;4975435;28;20173;-70
2021/01/26 08:48:21;;;;;;;3.90;3.60;;;1.00;95.50;;;;;;4975607;28;20528;-70
2021/01/26 08:50:50;;;;;;;2.72;2.53;;;1.00;95.40;;;;;;4975264;28;20200;-70
2021/01/26 08:53:21;;;;;;;3.63;2.72;;;0.90;95.40;;;;;;4975201;28;20188;-70
2021/01/26 08:55:51;;;;;;;4.38;2.50;;;0.70;95.80;;;;;;4975076;28;20521;-70
2021/01/26 08:58:37;;;;;;;2.50;2.30;;;0.50;96.30;;;;;;4975216;28;20705;-70
2021/01/26 09:01:04;;;;;;;3.72;3.42;;;0.70;96.30;;;;;;4974041;28;20204;-69
2021/01/26 09:03:34;;;;;;;2.42;2.22;;;0.70;96.10;;;;;;4974951;28;20247;-70
2021/01/26 09:06:02;;;;;;;4.03;3.22;;;0.70;96.10;;;;;;4974969;28;20188;-71
2021/01/26 09:08:40;;;;;;;2.95;2.40;;;0.70;95.80;;;;;;4975037;28;20219;-70
2021/01/26 09:11:13;;;;;;;3.22;2.90;;;0.90;95.90;;;;;;4974868;28;20616;-71
2021/01/26 09:13:40;;;;;;;8.40;3.53;;;0.70;95.80;;;;;;4974904;28;20220;-71
2021/01/26 09:16:18;;;;;;;4.00;2.80;;;0.70;96.20;;;;;;4974756;28;20206;-70
2021/01/26 09:18:52;;;;;;;8.55;3.10;;;0.50;96.50;;;;;;4975131;28;20203;-70
2021/01/26 09:21:18;;;;;;;1.60;1.50;;;0.50;96.40;;;;;;4974914;28;20176;-71
2021/01/26 09:23:44;;;;;;;4.32;2.50;;;0.50;96.60;;;;;;4974877;28;20212;-70
2021/01/26 09:26:15;;;;;;;2.28;2.03;;;0.70;96.60;;;;;;4974508;28;20235;-71
2021/01/26 09:28:43;;;;;;;5.78;3.97;;;0.90;96.80;;;;;;4974133;28;20180;-72
2021/01/26 09:31:12;;;;;;;4.03;2.75;;;1.00;95.90;;;;;;4974734;28;20275;-72
2021/01/26 09:33:38;;;;;;;3.72;3.33;;;0.90;96.00;;;;;;4975230;28;20239;-73
2021/01/26 09:36:03;;;;;;;2.97;2.30;;;1.00;96.10;;;;;;4974637;28;20215;-73
2021/01/26 09:38:41;;;;;;;3.60;3.30;;;1.20;95.60;;;;;;4973973;28;20409;-73
2021/01/26 09:41:17;;;;;;;4.43;4.03;;;1.00;95.80;;;;;;4975223;28;20259;-72
2021/01/26 09:43:46;;;;;;;4.13;2.80;;;1.00;96.10;;;;;;4974796;28;20231;-71
2021/01/26 09:46:15;;;;;;;3.45;2.45;;;1.00;96.00;;;;;;4974666;28;20252;-69
2021/01/26 09:48:46;;;;;;;4.22;3.47;;;1.10;95.90;;;;;;4975018;28;20205;-71
2021/01/26 09:51:20;;;;;;;3.45;3.15;;;1.10;95.80;;;;;;4974877;28;20200;-72
2021/01/26 09:53:49;;;;;;;4.30;3.15;;;1.10;95.70;;;;;;4974915;28;20620;-72
2021/01/26 09:56:21;;;;;;;6.18;3.50;;;1.10;96.00;;;;;;4974470;28;20184;-71
2021/01/26 09:58:51;;;;;;;5.38;2.80;;;1.00;95.90;;;;;;4974664;28;20223;-72
2021/01/26 10:01:17;;;;;;;2.00;1.90;;;0.90;96.10;;;;;;4974825;28;20590;-70
2021/01/26 10:03:44;;;;;;;5.10;2.90;;;1.10;96.40;;;;;;4975025;28;20236;-68
2021/01/26 10:06:11;;;;;;;2.95;2.47;;;1.10;96.20;;;;;;4974532;28;20188;-69
2021/01/26 10:08:37;;;;;;;3.33;2.53;;;1.10;96.20;;;;;;4974509;28;20200;-70
2021/01/26 10:11:26;;;;;;;3.00;1.92;;;1.30;96.00;;;;;;4974483;28;20208;-70
2021/01/26 10:14:16;;;;;;;4.50;2.95;;;1.20;95.90;;;;;;4974249;28;20189;-70
2021/01/26 10:16:46;;;;;;;5.47;2.78;;;1.30;96.00;;;;;;4972955;28;20188;-70
2021/01/26 10:19:35;;;;;;;4.45;2.78;;;1.30;95.80;;;;;;4974510;28;20168;-69
2021/01/26 10:22:17;;;;;;;3.25;3.05;;;1.20;95.90;;;;;;4968887;28;20204;-70
2021/01/26 10:28:26;;;;;;;3.05;2.58;;;1.30;95.80;;;;;;4974982;28;20167;-70
2021/01/26 10:30:54;;;;;;;9.20;3.75;;;1.30;95.80;;;;;;4974709;28;20580;-72
2021/01/26 10:33:40;;;;;;;3.00;2.75;;;1.30;95.80;;;;;;4974142;28;20188;-71
2021/01/26 10:36:30;;;;;;;4.63;2.55;;;1.40;95.70;;;;;;4974261;28;20169;-72
2021/01/26 10:38:58;;;;;;;4.25;2.58;;;2.30;96.10;;;;;;4974176;28;20169;-72
2021/01/26 10:41:38;;;;;;;2.47;2.15;;;1.00;96.00;;;;;;4974432;28;20541;-72
2021/01/26 10:44:08;;;;;;;3.30;2.33;;;1.00;96.70;;;;;;4974299;28;20220;-71
2021/01/26 10:46:39;;;;;;;4.97;3.67;;;1.30;96.50;;;;;;4974225;28;20177;-69
2021/01/26 10:49:34;;;;;;;2.90;2.70;;;1.40;96.00;;;;;;4974963;28;20181;-70
2021/01/26 10:52:08;;;;;;;3.28;2.65;;;1.50;95.70;;;;;;4976961;28;20203;-71
2021/01/26 10:54:35;;;;;;;5.50;2.53;;;1.60;95.50;;;;;;4977551;28;20165;-71
2021/01/26 10:57:01;;;;;;;2.38;2.15;;;1.80;95.30;;;;;;4977294;28;20273;-71
2021/01/26 10:59:27;;;;;;;6.75;4.10;;;1.60;95.00;;;;;;4977323;28;20594;-71
2021/01/26 11:01:53;;;;;;;4.10;2.70;;;1.70;95.20;;;;;;4976598;28;20181;-70
2021/01/26 11:04:19;;;;;;;3.07;2.73;;;1.70;94.90;;;;;;4974526;28;20213;-71
2021/01/26 11:06:46;;;;;;;4.15;3.53;;;1.60;95.00;;;;;;4975790;28;20489;-71
2021/01/26 11:09:14;;;;;;;3.38;1.50;;;1.80;95.10;;;;;;4977213;28;20182;-71
2021/01/26 11:11:40;;;;;;;6.30;2.35;;;1.80;94.80;;;;;;4977210;28;20200;-71
2021/01/26 11:14:07;;;;;;;3.63;3.10;;;2.00;94.60;;;;;;4977284;28;20214;-71
2021/01/26 11:16:33;;;;;;;5.22;2.40;;;1.90;94.80;;;;;;4976789;28;20178;-71
2021/01/26 11:19:00;;;;;;;3.63;2.50;;;1.90;94.40;;;;;;4977006;28;20185;-69
2021/01/26 11:21:26;;;;;;;2.33;2.13;;;1.90;94.30;;;;;;4976871;28;20497;-70
2021/01/26 11:23:53;;;;;;;3.30;2.22;;;2.00;94.30;;;;;;4976856;28;20206;-70
2021/01/26 11:26:21;;;;;;;3.63;2.95;;;2.20;93.90;;;;;;4976742;28;20626;-70
2021/01/26 11:28:48;;;;;;;4.10;2.85;;;1.80;94.00;;;;;;4976662;28;20186;-70
2021/01/26 11:31:15;;;;;;;3.47;2.45;;;1.80;94.30;;;;;;4976629;28;20189;-69
2021/01/26 11:33:41;;;;;;;2.70;2.35;;;1.80;94.40;;;;;;4976844;28;20531;-71
2021/01/26 11:36:07;;;;;;;2.37;2.20;;;2.00;94.50;;;;;;4976587;28;20186;-71
2021/01/26 11:38:34;;;;;;;2.13;1.90;;;2.30;94.20;;;;;;4975399;28;20417;-69
2021/01/26 11:41:02;;;;;;;2.80;1.77;;;2.50;93.60;;;;;;4976760;28;20178;-69
2021/01/26 11:43:28;;;;;;;2.28;1.83;;;2.60;93.40;;;;;;4976506;28;20673;-70
2021/01/26 11:45:55;;;;;;;6.57;2.00;;;2.70;93.10;;;;;;4976563;28;20187;-71
2021/01/26 11:48:21;;;;;;;4.85;4.45;;;2.80;92.90;;;;;;4974514;28;20660;-70
2021/01/26 11:50:48;;;;;;;4.40;2.67;;;2.80;92.40;;;;;;4974335;28;20338;-69
2021/01/26 11:53:17;;;;;;;3.50;2.33;;;2.80;92.20;;;;;;4976474;28;20428;-70
2021/01/26 11:55:44;;;;;;;3.42;2.47;;;2.60;92.80;;;;;;4976141;28;20679;-71
2021/01/26 11:58:11;;;;;;;3.03;2.63;;;2.60;92.90;;;;;;4976421;28;20205;-70
2021/01/26 12:00:38;;;;;;;7.40;5.88;;;2.70;93.00;;;;;;4974242;28;20185;-70
2021/01/26 12:03:05;;;;;;;4.13;2.47;;;2.80;92.60;;;;;;4976106;28;20194;-70
2021/01/26 12:05:34;;;;;;;2.83;2.45;;;2.80;92.60;;;;;;4976214;28;20593;-70
2021/01/26 12:08:01;;;;;;;2.85;2.53;;;2.60;92.60;;;;;;4976085;28;20178;-70
2021/01/26 12:10:30;;;;;;;4.13;3.25;;;2.60;92.60;;;;;;4975821;28;20214;-70
2021/01/26 12:12:56;;;;;;;3.97;1.70;;;2.50;92.70;;;;;;4974715;28;20742;-71
2021/01/26 12:15:30;;;;;;;3.85;2.15;;;2.40;92.30;;;;;;4975614;28;20538;-70
2021/01/26 12:17:57;;;;;;;2.25;1.60;;;2.30;92.60;;;;;;4975860;28;20184;-70
2021/01/26 12:20:23;;;;;;;2.63;2.42;;;2.60;93.10;;;;;;4975835;28;20225;-71
2021/01/26 12:22:49;;;;;;;3.20;2.97;;;2.80;93.10;;;;;;4975676;28;20194;-71
2021/01/26 12:25:17;;;;;;;5.13;2.28;;;3.00;92.40;;;;;;4975788;28;20221;-70
2021/01/26 12:27:43;;;;;;;2.55;2.35;;;2.90;92.00;;;;;;4975885;28;20184;-70
2021/01/26 12:30:10;;;;;;;9.50;3.70;;;2.80;92.10;;;;;;4975527;28;20205;-71
2021/01/26 12:32:36;;;;;;;2.53;1.90;;;2.60;92.30;;;;;;4975565;28;20610;-70
2021/01/26 12:35:05;;;;;;;2.30;2.08;;;2.70;92.50;;;;;;4975444;28;20179;-70
2021/01/26 12:37:30;;;;;;;5.38;2.70;;;2.40;92.60;;;;;;4975712;28;20170;-70
2021/01/26 12:39:56;;;;;;;5.17;2.00;;;2.10;92.90;;;;;;4975646;28;20583;-70
2021/01/26 12:42:24;;;;;;;4.13;2.40;;;2.10;93.20;;;;;;4975527;28;20193;-70
2021/01/26 12:44:50;;;;;;;2.42;2.08;;;2.30;93.30;;;;;;4975495;28;20600;-70
2021/01/26 12:47:15;;;;;;;5.05;3.60;;;2.40;93.00;;;;;;4975322;28;20178;-71
2021/01/26 12:49:41;;;;;;;3.43;2.63;;;2.50;92.70;;;;;;4975840;28;20178;-70
2021/01/26 12:52:07;;;;;;;2.80;2.00;;;2.30;92.90;;;;;;4975223;28;20695;-71
2021/01/26 12:54:32;;;;;;;6.13;3.80;;;2.20;92.90;;;;;;4975236;28;20628;-71
2021/01/26 12:56:58;;;;;;;2.13;1.93;;;2.10;93.00;;;;;;4975212;28;20165;-70
2021/01/26 12:59:24;;;;;;;4.70;3.13;;;2.20;93.00;;;;;;4975650;28;20257;-71
2021/01/26 13:01:49;;;;;;;3.80;3.03;;;2.20;93.20;;;;;;4975105;28;20215;-71
2021/01/26 13:04:15;;;;;;;3.30;2.20;;;2.20;93.30;;;;;;4975109;28;20205;-70
2021/01/26 13:06:41;;;;;;;3.13;2.30;;;2.20;93.60;;;;;;4975022;28;20178;-70
2021/01/26 13:09:06;;;;;;;2.30;1.57;;;2.30;93.50;;;;;;4975074;28;20180;-71
2021/01/26 13:11:33;;;;;;;2.87;1.90;;;2.40;93.40;;;;;;4975033;28;20201;-71
2021/01/26 13:13:59;;;;;;;2.67;2.42;;;2.30;93.20;;;;;;4974847;28;20429;-70
2021/01/26 13:16:25;;;;;;;4.07;2.80;;;2.50;93.40;;;;;;4974849;28;20512;-71
2021/01/26 13:18:52;;;;;;;2.90;2.43;;;2.50;92.70;;;;;;4974919;28;20175;-70
2021/01/26 13:21:18;;;;;;;2.92;2.72;;;2.50;92.20;;;;;;4975007;28;20175;-71
2021/01/26 13:23:44;;;;;;;2.92;2.30;;;2.50;92.40;;;;;;4974748;28;20200;-70
2021/01/26 13:26:10;;;;;;;3.17;2.08;;;2.60;92.30;;;;;;4974674;28;20237;-71
2021/01/26 13:28:36;;;;;;;2.20;2.10;;;2.80;92.20;;;;;;4974723;28;20550;-70
2021/01/26 13:31:03;;;;;;;2.00;1.80;;;2.80;92.10;;;;;;4974713;28;20198;-71
2021/01/26 13:33:28;;;;;;;2.08;1.40;;;2.60;92.30;;;;;;4974619;28;20191;-71
2021/01/26 13:35:54;;;;;;;2.43;2.23;;;2.60;92.10;;;;;;4974606;28;20229;-70
2021/01/26 13:38:20;;;;;;;2.00;1.70;;;2.50;92.40;;;;;;4974658;28;20253;-70
2021/01/26 13:40:46;;;;;;;3.90;1.63;;;2.60;92.50;;;;;;4974807;28;20174;-71
2021/01/26 13:43:11;;;;;;;2.00;1.60;;;2.50;92.10;;;;;;4974650;28;20194;-70